Time;durP1;ratioP1;P1;durP2;ratioP2;P2;SDS_P1;SDS_P2;PMS_P1;PMS_P2;Temp;Humidity;BMP_temperature;BMP_pressure;BME280_temperature;BME280_humidity;BME280_pressure;Samples;Min_cycle;Max_cycle;Signal;HPM_P1;HPM_P2
2024/03/07 00:01:39;;;;;;;;;;;12.20;48.30;;;;;;5078018;28;19928;-60
2024/03/07 00:04:08;;;;;;;;;;;12.20;48.30;;;;;;5090170;28;20638;-63
2024/03/07 00:06:36;;;;;;;;;;;12.10;48.30;;;;;;5083226;28;19927;-61
2024/03/07 00:09:04;;;;;;;;;;;12.10;48.30;;;;;;5087426;28;19928;-60
2024/03/07 00:11:32;;;;;;;;;;;12.00;48.30;;;;;;5076323;28;20038;-60
2024/03/07 00:14:01;;;;;;;;;;;11.90;48.30;;;;;;5080571;28;19932;-60
2024/03/07 00:16:29;;;;;;;;;;;11.90;48.40;;;;;;5086910;28;19928;-60
2024/03/07 00:18:57;;;;;;;;;;;11.90;48.50;;;;;;5085056;28;19932;-61
2024/03/07 00:21:27;;;;;;;;;;;11.90;48.50;;;;;;5074488;28;20298;-60
2024/03/07 00:23:55;;;;;;;;;;;11.80;48.50;;;;;;5085783;28;20369;-60
2024/03/07 00:26:23;;;;;;;;;;;11.80;48.50;;;;;;5087451;28;20385;-60
2024/03/07 00:28:52;;;;;;;;;;;11.80;48.60;;;;;;5082828;27;20034;-61
2024/03/07 00:31:21;;;;;;;;;;;11.80;48.70;;;;;;5080342;28;19957;-61
2024/03/07 00:33:49;;;;;;;;;;;11.70;48.70;;;;;;5089915;28;20304;-61
2024/03/07 00:36:38;;;;;;;;;;;11.70;48.70;;;;;;5085109;28;19928;-61
2024/03/07 00:39:08;;;;;;;;;;;11.60;48.70;;;;;;5081298;28;19928;-61
2024/03/07 00:41:36;;;;;;;;;;;11.50;48.90;;;;;;5078389;28;19931;-62
2024/03/07 00:44:05;;;;;;;;;;;11.40;49.00;;;;;;5085973;28;20011;-60
2024/03/07 00:46:33;;;;;;;;;;;11.40;49.00;;;;;;5082296;28;19931;-62
2024/03/07 00:49:01;;;;;;;;;;;11.40;49.00;;;;;;5082204;28;20318;-60
2024/03/07 00:51:29;;;;;;;;;;;11.40;49.10;;;;;;5074727;28;19933;-62
2024/03/07 00:53:59;;;;;;;;;;;11.40;49.20;;;;;;5083164;28;20431;-61
2024/03/07 00:56:28;;;;;;;;;;;11.40;49.20;;;;;;5085138;28;19930;-60
2024/03/07 00:58:57;;;;;;;;;;;11.40;49.20;;;;;;5078864;28;19981;-59
2024/03/07 01:01:25;;;;;;;;;;;11.30;49.20;;;;;;5076224;28;20281;-61
2024/03/07 01:03:53;;;;;;;;;;;11.30;49.20;;;;;;5085651;28;19934;-61
2024/03/07 01:06:22;;;;;;;;;;;11.30;49.30;;;;;;5082723;28;19928;-61
2024/03/07 01:08:51;;;;;;;;;;;11.20;49.20;;;;;;5084770;28;19928;-60
2024/03/07 01:11:21;;;;;;;;;;;11.10;49.20;;;;;;5075964;28;19924;-61
2024/03/07 01:13:50;;;;;;;;;;;11.00;49.30;;;;;;5081728;28;19939;-60
2024/03/07 01:16:18;;;;;;;;;;;10.90;49.50;;;;;;5081247;28;20394;-60
2024/03/07 01:18:46;;;;;;;;;;;10.70;49.50;;;;;;5080488;28;21155;-60
2024/03/07 01:21:15;;;;;;;;;;;10.60;49.80;;;;;;5079119;27;20343;-60
2024/03/07 01:23:43;;;;;;;;;;;10.50;49.90;;;;;;5082051;28;19976;-61
2024/03/07 01:26:12;;;;;;;;;;;10.40;50.00;;;;;;5082925;28;19928;-60
2024/03/07 01:28:41;;;;;;;;;;;10.40;50.20;;;;;;5085168;28;19969;-60
2024/03/07 01:31:10;;;;;;;;;;;10.40;50.40;;;;;;5080447;28;19927;-62
2024/03/07 01:33:38;;;;;;;;;;;10.40;50.20;;;;;;5071679;28;21849;-60
2024/03/07 01:36:06;;;;;;;;;;;10.50;50.20;;;;;;5088844;28;19932;-61
2024/03/07 01:38:34;;;;;;;;;;;10.50;50.20;;;;;;5084249;27;20494;-61
2024/03/07 01:41:02;;;;;;;;;;;10.60;50.20;;;;;;5081832;28;20327;-62
2024/03/07 01:43:31;;;;;;;;;;;10.60;50.10;;;;;;5076169;28;19959;-61
2024/03/07 01:46:01;;;;;;;;;;;10.60;50.20;;;;;;5089203;28;19929;-61
2024/03/07 01:48:29;;;;;;;;;;;10.60;50.10;;;;;;5080460;28;20015;-64
2024/03/07 01:50:58;;;;;;;;;;;10.50;50.20;;;;;;5080567;28;19934;-62
2024/03/07 01:53:26;;;;;;;;;;;10.50;50.20;;;;;;5072795;28;19942;-60
2024/03/07 01:55:55;;;;;;;;;;;10.40;52.20;;;;;;5080214;28;20042;-61
2024/03/07 01:58:23;;;;;;;;;;;10.30;53.40;;;;;;5085685;28;19928;-61
2024/03/07 02:00:51;;;;;;;;;;;10.30;54.60;;;;;;5081442;28;19934;-60
2024/03/07 02:03:21;;;;;;;;;;;10.40;55.60;;;;;;5079102;28;19971;-61
2024/03/07 02:05:50;;;;;;;;;;;10.40;56.10;;;;;;5082507;28;19928;-60
2024/03/07 02:08:19;;;;;;;;;;;10.30;56.50;;;;;;5081705;28;20790;-60
2024/03/07 02:10:48;;;;;;;;;;;10.30;57.00;;;;;;5087718;28;19928;-61
2024/03/07 02:13:17;;;;;;;;;;;10.30;57.40;;;;;;5079065;28;19934;-61
2024/03/07 02:15:45;;;;;;;;;;;10.40;57.80;;;;;;5079823;28;19924;-60
2024/03/07 02:18:13;;;;;;;;;;;10.40;58.00;;;;;;5079783;28;20390;-61
2024/03/07 02:20:45;;;;;;;;;;;10.40;58.10;;;;;;5086884;28;20669;-60
2024/03/07 02:23:14;;;;;;;;;;;10.40;58.20;;;;;;5079775;28;19985;-60
2024/03/07 02:25:42;;;;;;;;;;;10.30;58.50;;;;;;5073724;28;20017;-61
2024/03/07 02:28:11;;;;;;;;;;;10.30;58.80;;;;;;5087372;28;19950;-60
2024/03/07 02:30:39;;;;;;;;;;;10.40;59.00;;;;;;5087057;28;19988;-60
2024/03/07 02:33:07;;;;;;;;;;;10.40;59.10;;;;;;5082701;28;19928;-60
2024/03/07 02:35:36;;;;;;;;;;;10.30;59.20;;;;;;5076775;28;20099;-59
2024/03/07 02:38:06;;;;;;;;;;;10.40;59.40;;;;;;5087255;28;20006;-60
2024/03/07 02:40:34;;;;;;;;;;;10.40;59.50;;;;;;5087247;28;20007;-60
2024/03/07 02:43:04;;;;;;;;;;;10.40;59.60;;;;;;5085556;28;20019;-60
2024/03/07 02:45:33;;;;;;;;;;;10.40;59.60;;;;;;5085717;28;19927;-60
2024/03/07 02:48:01;;;;;;;;;;;10.40;59.70;;;;;;5086755;28;20780;-59
2024/03/07 02:50:30;;;;;;;;;;;10.40;60.50;;;;;;5080450;28;19997;-61
2024/03/07 02:52:58;;;;;;;;;;;10.50;59.90;;;;;;5085891;28;20403;-60
2024/03/07 02:55:27;;;;;;;;;;;10.40;60.00;;;;;;5088487;28;19927;-60
2024/03/07 02:57:57;;;;;;;;;;;10.40;60.20;;;;;;5080850;28;20039;-59
2024/03/07 03:00:29;;;;;;;;;;;10.50;60.30;;;;;;5087799;28;20382;-60
2024/03/07 03:02:58;;;;;;;;;;;10.50;60.50;;;;;;5077164;28;19932;-60
2024/03/07 03:05:26;;;;;;;;;;;10.50;60.30;;;;;;5078118;28;19924;-61
2024/03/07 03:07:54;;;;;;;;;;;10.50;60.30;;;;;;5081435;28;19940;-59
2024/03/07 03:10:25;;;;;;;;;;;10.50;60.20;;;;;;5088916;28;20282;-59
2024/03/07 03:12:57;;;;;;;;;;;10.60;60.10;;;;;;5083752;27;19928;-61
2024/03/07 03:15:26;;;;;;;;;;;10.60;60.00;;;;;;5078541;28;20717;-60
2024/03/07 03:17:54;;;;;;;;;;;10.60;59.90;;;;;;5086292;28;20008;-61
2024/03/07 03:20:25;;;;;;;;;;;10.60;59.90;;;;;;5086174;27;19927;-61
2024/03/07 03:22:54;;;;;;;;;;;10.60;59.90;;;;;;5083743;28;19936;-60
2024/03/07 03:25:42;;;;;;;;;;;10.60;59.90;;;;;;5083855;28;19934;-61
2024/03/07 03:28:12;;;;;;;;;;;10.60;59.90;;;;;;5086117;28;19980;-61
2024/03/07 03:30:41;;;;;;;;;;;10.60;59.90;;;;;;5085923;28;19923;-61
2024/03/07 03:33:09;;;;;;;;;;;10.60;59.90;;;;;;5083983;28;20003;-61
2024/03/07 03:35:38;;;;;;;;;;;10.60;59.90;;;;;;5078897;28;21512;-60
2024/03/07 03:38:07;;;;;;;;;;;10.60;59.70;;;;;;5082880;28;20629;-61
2024/03/07 03:40:35;;;;;;;;;;;10.60;59.70;;;;;;5084571;28;19964;-62
2024/03/07 03:43:04;;;;;;;;;;;10.60;59.70;;;;;;5086115;28;19923;-61
2024/03/07 03:45:33;;;;;;;;;;;10.60;59.80;;;;;;5076428;28;19936;-61
2024/03/07 03:48:03;;;;;;;;;;;10.60;59.70;;;;;;5085246;28;19928;-62
2024/03/07 03:50:31;;;;;;;;;;;10.60;59.60;;;;;;5090039;28;19955;-61
2024/03/07 03:53:01;;;;;;;;;;;10.60;59.60;;;;;;5083238;28;20453;-60
2024/03/07 03:55:29;;;;;;;;;;;10.60;59.60;;;;;;5077838;28;19934;-61
2024/03/07 03:57:57;;;;;;;;;;;10.50;59.80;;;;;;5080603;28;19970;-61
2024/03/07 04:00:26;;;;;;;;;;;10.50;59.70;;;;;;5085000;28;19924;-61
2024/03/07 04:02:56;;;;;;;;;;;10.50;59.80;;;;;;5070621;28;19936;-60
2024/03/07 04:05:24;;;;;;;;;;;10.60;59.80;;;;;;5078299;28;19928;-60
2024/03/07 04:07:52;;;;;;;;;;;10.60;59.80;;;;;;5085889;28;20352;-60
2024/03/07 04:10:21;;;;;;;;;;;10.60;59.70;;;;;;5082633;28;20053;-61
2024/03/07 04:12:49;;;;;;;;;;;10.60;59.60;;;;;;5084842;28;19932;-61
2024/03/07 04:15:18;;;;;;;;;;;10.60;59.60;;;;;;5080362;28;19935;-61
2024/03/07 04:17:48;;;;;;;;;;;10.50;59.60;;;;;;5081498;28;19971;-61
2024/03/07 04:20:18;;;;;;;;;;;10.50;59.70;;;;;;5077805;28;20382;-61
2024/03/07 04:22:50;;;;;;;;;;;10.50;59.70;;;;;;5082800;28;19971;-60
2024/03/07 04:25:20;;;;;;;;;;;10.60;59.90;;;;;;5083491;28;20378;-61
2024/03/07 04:27:49;;;;;;;;;;;10.60;59.90;;;;;;5066500;28;20434;-61
2024/03/07 04:30:17;;;;;;;;;;;10.60;59.90;;;;;;5089241;28;19938;-61
2024/03/07 04:32:45;;;;;;;;;;;10.60;59.90;;;;;;4947203;28;3707041;-62
2024/03/07 04:35:14;;;;;;;;;;;10.60;59.90;;;;;;5084507;28;19930;-61
2024/03/07 04:37:48;;;;;;;;;;;10.60;59.90;;;;;;5071392;28;20452;-60
2024/03/07 04:40:16;;;;;;;;;;;10.70;59.90;;;;;;5081204;28;19928;-60
2024/03/07 04:42:47;;;;;;;;;;;10.70;59.90;;;;;;5079852;28;19930;-60
2024/03/07 04:45:17;;;;;;;;;;;10.70;60.00;;;;;;5082266;28;19928;-60
2024/03/07 04:47:46;;;;;;;;;;;10.70;59.90;;;;;;5078653;28;20042;-61
2024/03/07 04:50:17;;;;;;;;;;;10.70;60.00;;;;;;5067150;28;20001;-60
2024/03/07 04:52:48;;;;;;;;;;;10.70;60.00;;;;;;5084199;28;19924;-61
2024/03/07 04:55:19;;;;;;;;;;;10.70;60.00;;;;;;5078823;28;20605;-61
2024/03/07 04:57:47;;;;;;;;;;;10.70;59.90;;;;;;5079811;28;19938;-61
2024/03/07 05:00:18;;;;;;;;;;;10.80;60.00;;;;;;5082587;28;20401;-60
2024/03/07 05:02:48;;;;;;;;;;;10.80;59.90;;;;;;5075032;28;20025;-63
2024/03/07 05:05:21;;;;;;;;;;;10.80;59.90;;;;;;5077756;28;19935;-63
2024/03/07 05:07:52;;;;;;;;;;;10.70;59.90;;;;;;5079413;28;20423;-63
2024/03/07 05:10:21;;;;;;;;;;;10.70;59.90;;;;;;5081881;28;20462;-64
2024/03/07 05:12:49;;;;;;;;;;;10.70;59.90;;;;;;5082790;28;19944;-62
2024/03/07 05:15:18;;;;;;;;;;;10.70;59.90;;;;;;5059107;28;20259;-63
2024/03/07 05:17:46;;;;;;;;;;;10.60;59.70;;;;;;5076592;28;19935;-63
2024/03/07 05:20:14;;;;;;;;;;;10.50;59.70;;;;;;5080323;28;20335;-64
2024/03/07 05:22:47;;;;;;;;;;;10.50;59.80;;;;;;5079456;28;19967;-63
2024/03/07 05:25:22;;;;;;;;;;;10.40;59.90;;;;;;5085119;28;19931;-63
2024/03/07 05:27:51;;;;;;;;;;;10.40;60.00;;;;;;5086294;28;19932;-63
2024/03/07 05:30:23;;;;;;;;;;;10.40;60.10;;;;;;5078710;28;20480;-63
2024/03/07 05:32:51;;;;;;;;;;;10.50;60.20;;;;;;5076121;28;20414;-63
2024/03/07 05:35:20;;;;;;;;;;;10.50;60.10;;;;;;5076539;28;20023;-64
2024/03/07 05:37:50;;;;;;;;;;;10.60;60.10;;;;;;5077768;28;20666;-64
2024/03/07 05:40:21;;;;;;;;;;;10.60;60.10;;;;;;5079743;28;19996;-64
2024/03/07 05:42:49;;;;;;;;;;;10.60;60.10;;;;;;5078920;28;19932;-62
2024/03/07 05:45:19;;;;;;;;;;;10.60;60.10;;;;;;5072608;28;19932;-61
2024/03/07 05:47:48;;;;;;;;;;;10.60;60.00;;;;;;5055538;28;19983;-63
2024/03/07 05:50:18;;;;;;;;;;;10.50;60.80;;;;;;5081199;28;19924;-68
2024/03/07 05:52:48;;;;;;;;;;;10.50;60.10;;;;;;5078431;28;19955;-62
2024/03/07 05:55:19;;;;;;;;;;;10.50;60.00;;;;;;5074202;28;19935;-60
2024/03/07 05:57:49;;;;;;;;;;;10.50;60.10;;;;;;5080576;28;19935;-60
2024/03/07 06:00:26;;;;;;;;;;;10.50;60.10;;;;;;5085227;28;19934;-60
2024/03/07 06:02:56;;;;;;;;;;;10.60;60.40;;;;;;5081178;28;19928;-61
2024/03/07 06:05:24;;;;;;;;;;;10.60;60.20;;;;;;5070642;28;19935;-60
2024/03/07 06:07:52;;;;;;;;;;;10.60;60.30;;;;;;5081717;28;19939;-59
2024/03/07 06:10:23;;;;;;;;;;;10.60;60.20;;;;;;5081026;28;19960;-60
2024/03/07 06:12:53;;;;;;;;;;;10.60;60.20;;;;;;5081608;28;19950;-59
2024/03/07 06:15:38;;;;;;;;;;;10.70;60.20;;;;;;5075673;28;20401;-59
2024/03/07 06:18:07;;;;;;;;;;;10.70;60.40;;;;;;5076520;28;19928;-60
2024/03/07 06:20:37;;;;;;;;;;;10.70;60.20;;;;;;5085258;28;20414;-61
2024/03/07 06:23:05;;;;;;;;;;;10.70;60.20;;;;;;5082057;28;19975;-65
2024/03/07 06:25:37;;;;;;;;;;;10.80;60.30;;;;;;5069849;28;19954;-63
2024/03/07 06:28:10;;;;;;;;;;;10.80;60.30;;;;;;5078727;28;19981;-64
2024/03/07 06:30:41;;;;;;;;;;;10.80;60.10;;;;;;5077433;28;19967;-63
2024/03/07 06:33:09;;;;;;;;;;;10.80;60.10;;;;;;5076943;28;20023;-62
2024/03/07 06:35:38;;;;;;;;;;;10.80;60.20;;;;;;5073319;28;22003;-61
2024/03/07 06:38:08;;;;;;;;;;;10.80;60.20;;;;;;5073696;28;19989;-62
2024/03/07 06:40:36;;;;;;;;;;;10.90;60.30;;;;;;5075694;28;19962;-63
2024/03/07 06:43:06;;;;;;;;;;;10.90;60.20;;;;;;5077275;28;20287;-63
2024/03/07 06:45:36;;;;;;;;;;;11.00;60.20;;;;;;5073376;28;20348;-62
2024/03/07 06:48:06;;;;;;;;;;;11.00;60.20;;;;;;5079319;28;20609;-62
2024/03/07 06:50:35;;;;;;;;;;;11.00;60.10;;;;;;5081404;28;19928;-63
2024/03/07 06:53:07;;;;;;;;;;;11.00;60.10;;;;;;5078798;28;19971;-63
2024/03/07 06:55:37;;;;;;;;;;;11.10;60.20;;;;;;5082358;28;19963;-62
2024/03/07 06:58:05;;;;;;;;;;;11.10;60.20;;;;;;5082058;28;19924;-61
2024/03/07 07:00:35;;;;;;;;;;;11.10;60.10;;;;;;5077018;28;19928;-61
2024/03/07 07:03:07;;;;;;;;;;;11.20;60.10;;;;;;5076275;28;19935;-61
2024/03/07 07:05:35;;;;;;;;;;;11.20;60.10;;;;;;5071958;28;20378;-61
2024/03/07 07:08:05;;;;;;;;;;;11.30;60.50;;;;;;5084017;28;19946;-63
2024/03/07 07:10:33;;;;;;;;;;;11.30;60.10;;;;;;5082718;28;19932;-62
2024/03/07 07:13:04;;;;;;;;;;;11.40;60.10;;;;;;5082982;28;19932;-60
2024/03/07 07:15:32;;;;;;;;;;;11.40;60.10;;;;;;5077974;28;21544;-61
2024/03/07 07:18:02;;;;;;;;;;;11.50;60.30;;;;;;5083145;28;19924;-60
2024/03/07 07:20:34;;;;;;;;;;;11.50;60.20;;;;;;5085568;28;19924;-61
2024/03/07 07:23:03;;;;;;;;;;;11.50;60.10;;;;;;5078401;28;20039;-61
2024/03/07 07:25:32;;;;;;;;;;;11.50;60.80;;;;;;5077571;28;20002;-60
2024/03/07 07:28:00;;;;;;;;;;;11.50;60.00;;;;;;5087841;28;19928;-61
2024/03/07 07:30:28;;;;;;;;;;;11.50;60.10;;;;;;5079488;28;19932;-61
2024/03/07 07:32:56;;;;;;;;;;;11.50;60.10;;;;;;5063037;27;20282;-63
2024/03/07 07:35:25;;;;;;;;;;;11.50;60.10;;;;;;5071678;28;20031;-61
2024/03/07 07:37:55;;;;;;;;;;;11.50;60.20;;;;;;5082872;28;19924;-61
2024/03/07 07:40:27;;;;;;;;;;;11.50;60.10;;;;;;5076485;27;20098;-61
2024/03/07 07:42:55;;;;;;;;;;;11.60;60.10;;;;;;5083779;28;19928;-61
2024/03/07 07:45:24;;;;;;;;;;;11.60;60.00;;;;;;5077942;28;19934;-62
2024/03/07 07:47:52;;;;;;;;;;;11.60;60.00;;;;;;5077344;28;20036;-64
2024/03/07 07:50:21;;;;;;;;;;;11.60;60.00;;;;;;5079876;27;19923;-61
2024/03/07 07:52:50;;;;;;;;;;;11.60;59.90;;;;;;5085031;27;20044;-64
2024/03/07 07:55:20;;;;;;;;;;;11.70;59.80;;;;;;5085488;28;19954;-63
2024/03/07 07:57:49;;;;;;;;;;;11.70;59.80;;;;;;5081827;28;19928;-63
2024/03/07 08:00:22;;;;;;;;;;;11.70;59.80;;;;;;5084371;27;19935;-62
2024/03/07 08:02:54;;;;;;;;;;;11.80;59.80;;;;;;5079616;28;19928;-60
2024/03/07 08:05:24;;;;;;;;;;;11.90;59.80;;;;;;5077995;28;20012;-62
2024/03/07 08:07:54;;;;;;;;;;;12.00;59.70;;;;;;5074416;28;19949;-61
2024/03/07 08:10:24;;;;;;;;;;;12.10;59.70;;;;;;5080170;28;20377;-61
2024/03/07 08:12:52;;;;;;;;;;;12.10;59.50;;;;;;5082658;28;19928;-61
2024/03/07 08:15:21;;;;;;;;;;;12.20;59.70;;;;;;5077833;28;20336;-64
2024/03/07 08:17:51;;;;;;;;;;;12.30;59.50;;;;;;5081919;28;20455;-63
2024/03/07 08:20:20;;;;;;;;;;;12.40;59.50;;;;;;5084864;27;19932;-60
2024/03/07 08:22:51;;;;;;;;;;;12.50;59.50;;;;;;5081873;27;19962;-63
2024/03/07 08:25:19;;;;;;;;;;;12.60;59.40;;;;;;5074453;28;19928;-62
2024/03/07 08:27:49;;;;;;;;;;;12.70;59.40;;;;;;5079598;28;19949;-61
2024/03/07 08:30:17;;;;;;;;;;;12.80;59.40;;;;;;5077316;27;19954;-62
2024/03/07 08:32:46;;;;;;;;;;;12.90;59.30;;;;;;5071136;28;19928;-61
2024/03/07 08:35:15;;;;;;;;;;;13.00;59.40;;;;;;5086705;28;19980;-61
2024/03/07 08:37:45;;;;;;;;;;;13.00;59.10;;;;;;5082660;28;20386;-61
2024/03/07 08:40:19;;;;;;;;;;;13.10;59.10;;;;;;5089977;27;19928;-60
2024/03/07 08:42:50;;;;;;;;;;;13.20;59.00;;;;;;5083467;28;19932;-60
2024/03/07 08:45:20;;;;;;;;;;;13.30;59.00;;;;;;5077735;28;19939;-60
2024/03/07 08:47:49;;;;;;;;;;;13.30;58.90;;;;;;5080321;28;19939;-59
2024/03/07 08:50:17;;;;;;;;;;;13.30;58.70;;;;;;5080834;27;20702;-59
2024/03/07 08:52:47;;;;;;;;;;;13.30;58.80;;;;;;5080765;28;19939;-61
2024/03/07 08:55:16;;;;;;;;;;;13.30;58.70;;;;;;5088322;28;19927;-60
2024/03/07 08:57:46;;;;;;;;;;;13.30;58.70;;;;;;5076053;28;19993;-60
2024/03/07 09:00:22;;;;;;;;;;;13.30;58.80;;;;;;5080555;27;20345;-60
2024/03/07 09:02:52;;;;;;;;;;;13.30;58.80;;;;;;5078697;28;19934;-61
2024/03/07 09:05:22;;;;;;;;;;;13.30;58.80;;;;;;5076324;28;19963;-60
2024/03/07 09:07:51;;;;;;;;;;;13.40;58.90;;;;;;5080990;28;19928;-61
2024/03/07 09:10:20;;;;;;;;;;;13.50;58.90;;;;;;5078648;27;19985;-61
2024/03/07 09:12:49;;;;;;;;;;;13.60;58.80;;;;;;5081118;28;19928;-61
2024/03/07 09:15:21;;;;;;;;;;;13.70;58.80;;;;;;5072787;28;19928;-60
2024/03/07 09:17:51;;;;;;;;;;;13.70;58.70;;;;;;5080299;28;20031;-60
2024/03/07 09:20:20;;;;;;;;;;;13.70;58.60;;;;;;5079282;27;19928;-59
2024/03/07 09:22:50;;;;;;;;;;;13.70;58.60;;;;;;5081408;27;20301;-60
2024/03/07 09:25:19;;;;;;;;;;;13.70;58.60;;;;;;5073473;28;19927;-62
2024/03/07 09:27:48;;;;;;;;;;;13.70;58.60;;;;;;5078668;28;19928;-61
2024/03/07 09:30:19;;;;;;;;;;;13.80;58.60;;;;;;5086334;27;20581;-60
2024/03/07 09:32:49;;;;;;;;;;;13.70;58.40;;;;;;5081699;27;19928;-59
2024/03/07 09:35:18;;;;;;;;;;;13.60;58.50;;;;;;5073708;28;19928;-58
2024/03/07 09:37:46;;;;;;;;;;;13.60;58.50;;;;;;5078318;28;19928;-58
2024/03/07 09:40:14;;;;;;;;;;;13.60;58.50;;;;;;5074328;27;19959;-59
2024/03/07 09:42:45;;;;;;;;;;;13.50;58.40;;;;;;5082472;27;19928;-60
2024/03/07 09:45:16;;;;;;;;;;;13.50;58.50;;;;;;5087021;28;19928;-58
2024/03/07 09:47:46;;;;;;;;;;;13.50;58.50;;;;;;5076285;28;19976;-60
2024/03/07 09:50:18;;;;;;;;;;;13.50;58.40;;;;;;5080763;27;19927;-59
2024/03/07 09:52:49;;;;;;;;;;;13.50;58.50;;;;;;5069905;28;19975;-60
2024/03/07 09:55:19;;;;;;;;;;;13.50;58.40;;;;;;5076215;28;20595;-59
2024/03/07 09:57:47;;;;;;;;;;;13.40;58.50;;;;;;5082346;28;20279;-59
2024/03/07 10:00:22;;;;;;;;;;;13.50;58.90;;;;;;5082801;28;19932;-59
2024/03/07 10:02:54;;;;;;;;;;;14.20;59.80;;;;;;5063236;28;19928;-59
2024/03/07 10:05:27;;;;;;;;;;;14.70;58.90;;;;;;5076589;28;20517;-60
2024/03/07 10:07:55;;;;;;;;;;;15.10;58.90;;;;;;5082099;28;19938;-58
2024/03/07 10:10:24;;;;;;;;;;;15.60;58.30;;;;;;5076695;28;19954;-57
2024/03/07 10:12:53;;;;;;;;;;;15.90;57.90;;;;;;5084724;28;20395;-59
2024/03/07 10:15:22;;;;;;;;;;;16.60;57.80;;;;;;5070078;28;19928;-58
2024/03/07 10:17:51;;;;;;;;;;;17.20;57.60;;;;;;5080911;28;20295;-56
2024/03/07 10:20:20;;;;;;;;;;;18.30;57.40;;;;;;5083290;28;19932;-58
2024/03/07 10:22:50;;;;;;;;;;;19.50;56.60;;;;;;5085716;28;19967;-58
2024/03/07 10:25:21;;;;;;;;;;;20.70;55.50;;;;;;5078054;28;19928;-56
2024/03/07 10:27:49;;;;;;;;;;;21.70;53.60;;;;;;5080738;28;19997;-61
2024/03/07 10:30:21;;;;;;;;;;;22.50;52.00;;;;;;5088086;28;19932;-56
2024/03/07 10:32:54;;;;;;;;;;;22.70;49.40;;;;;;5082651;28;19928;-55
2024/03/07 10:35:24;;;;;;;;;;;23.00;49.80;;;;;;5071500;28;20375;-58
2024/03/07 10:37:55;;;;;;;;;;;23.40;48.30;;;;;;5071794;28;19934;-56
2024/03/07 10:40:25;;;;;;;;;;;23.60;48.60;;;;;;5077746;28;20331;-56
2024/03/07 10:42:57;;;;;;;;;;;24.10;48.00;;;;;;5077874;28;19924;-57
2024/03/07 10:45:29;;;;;;;;;;;24.50;47.60;;;;;;5073370;27;20000;-57
2024/03/07 10:47:58;;;;;;;;;;;24.50;46.80;;;;;;5078949;28;19959;-56
2024/03/07 10:50:39;;;;;;;;;;;24.50;46.30;;;;;;5082292;28;19928;-58
2024/03/07 10:53:14;;;;;;;;;;;24.60;46.60;;;;;;5085100;27;19987;-61
2024/03/07 10:55:50;;;;;;;;;;;24.80;45.90;;;;;;5076048;28;20027;-56
2024/03/07 10:58:25;;;;;;;;;;;24.70;45.60;;;;;;5082293;28;19927;-56
2024/03/07 11:00:57;;;;;;;;;;;24.40;44.80;;;;;;5085061;28;19932;-58
2024/03/07 11:03:26;;;;;;;;;;;24.20;45.20;;;;;;5078746;28;19954;-58
2024/03/07 11:05:55;;;;;;;;;;;24.10;45.40;;;;;;5080207;28;19928;-57
2024/03/07 11:08:26;;;;;;;;;;;23.80;45.00;;;;;;5081067;28;20026;-56
2024/03/07 11:10:55;;;;;;;;;;;22.90;45.50;;;;;;5088690;28;20027;-56
2024/03/07 11:13:26;;;;;;;;;;;22.40;47.10;;;;;;5081510;28;20065;-60
2024/03/07 11:15:58;;;;;;;;;;;21.90;46.60;;;;;;5067004;28;19936;-56
2024/03/07 11:18:26;;;;;;;;;;;21.00;47.50;;;;;;5077345;28;20414;-56
2024/03/07 11:20:57;;;;;;;;;;;20.70;48.80;;;;;;5083105;27;20334;-58
2024/03/07 11:23:28;;;;;;;;;;;20.50;49.00;;;;;;5072067;28;20019;-55
2024/03/07 11:26:03;;;;;;;;;;;20.20;49.00;;;;;;5083674;28;19967;-57
2024/03/07 11:28:31;;;;;;;;;;;19.70;49.40;;;;;;5083122;28;19928;-57
2024/03/07 11:31:10;;;;;;;;;;;19.10;49.30;;;;;;5082208;28;19928;-56
2024/03/07 11:33:41;;;;;;;;;;;18.40;48.90;;;;;;5081183;27;19924;-58
2024/03/07 11:36:11;;;;;;;;;;;17.70;49.90;;;;;;5081287;28;19928;-57
2024/03/07 11:38:48;;;;;;;;;;;17.20;50.90;;;;;;5083190;28;20397;-53
2024/03/07 11:41:20;;;;;;;;;;;16.80;51.20;;;;;;5086039;28;19935;-54
2024/03/07 11:43:48;;;;;;;;;;;16.50;51.50;;;;;;5081616;28;19967;-56
2024/03/07 11:46:17;;;;;;;;;;;16.10;52.20;;;;;;5082087;28;19931;-56
2024/03/07 11:48:46;;;;;;;;;;;16.00;52.40;;;;;;5078840;28;20008;-57
2024/03/07 11:51:15;;;;;;;;;;;16.00;53.40;;;;;;5084572;28;20019;-56
2024/03/07 11:53:47;;;;;;;;;;;16.00;52.70;;;;;;5083860;27;19935;-54
2024/03/07 11:56:17;;;;;;;;;;;15.90;52.50;;;;;;5085560;28;19924;-55
2024/03/07 11:58:52;;;;;;;;;;;15.90;52.90;;;;;;5085307;28;19924;-57
2024/03/07 12:01:25;;;;;;;;;;;15.90;52.90;;;;;;5074625;28;19932;-60
2024/03/07 12:03:53;;;;;;;;;;;15.80;52.70;;;;;;5084979;28;19928;-54
2024/03/07 12:06:25;;;;;;;;;;;15.70;52.50;;;;;;5083362;28;19935;-57
2024/03/07 12:08:53;;;;;;;;;;;15.60;52.40;;;;;;5083424;28;19923;-57
2024/03/07 12:11:25;;;;;;;;;;;15.50;52.40;;;;;;5058834;28;20303;-54
2024/03/07 12:13:54;;;;;;;;;;;15.40;52.50;;;;;;5087130;28;20092;-57
2024/03/07 12:16:24;;;;;;;;;;;15.30;52.70;;;;;;5081965;28;20035;-57
2024/03/07 12:18:57;;;;;;;;;;;15.10;52.40;;;;;;5091564;28;20238;-57
2024/03/07 12:21:27;;;;;;;;;;;15.00;51.90;;;;;;5073257;28;19979;-58
2024/03/07 12:23:55;;;;;;;;;;;15.00;52.50;;;;;;5071233;28;20032;-57
2024/03/07 12:26:26;;;;;;;;;;;14.90;52.60;;;;;;5086193;28;19928;-55
2024/03/07 12:28:54;;;;;;;;;;;15.00;53.10;;;;;;5088638;28;19934;-59
2024/03/07 12:31:24;;;;;;;;;;;15.00;52.90;;;;;;5079938;28;19927;-55
2024/03/07 12:33:52;;;;;;;;;;;15.20;52.40;;;;;;5078322;28;19938;-59
2024/03/07 12:36:22;;;;;;;;;;;15.30;52.90;;;;;;5079447;28;19955;-54
2024/03/07 12:38:54;;;;;;;;;;;15.50;53.00;;;;;;5083355;28;19935;-52
2024/03/07 12:41:23;;;;;;;;;;;15.80;52.70;;;;;;5081533;28;19979;-57
2024/03/07 12:43:53;;;;;;;;;;;16.10;52.70;;;;;;5087221;28;20533;-56
2024/03/07 12:46:21;;;;;;;;;;;16.30;52.30;;;;;;5066953;28;19928;-56
2024/03/07 12:48:49;;;;;;;;;;;16.40;52.00;;;;;;5088929;28;19946;-56
2024/03/07 12:51:22;;;;;;;;;;;16.50;51.70;;;;;;5078094;28;20027;-57
2024/03/07 12:53:52;;;;;;;;;;;16.50;51.80;;;;;;5079158;28;19946;-60
2024/03/07 12:56:20;;;;;;;;;;;16.60;51.60;;;;;;5088751;28;19927;-57
2024/03/07 12:58:49;;;;;;;;;;;16.60;51.50;;;;;;5079088;28;19993;-57
2024/03/07 13:01:20;;;;;;;;;;;16.50;52.00;;;;;;5078338;27;20932;-55
2024/03/07 13:03:49;;;;;;;;;;;16.50;51.10;;;;;;5084518;28;20374;-52
2024/03/07 13:06:25;;;;;;;;;;;16.40;51.20;;;;;;5079519;28;19928;-57
2024/03/07 13:08:54;;;;;;;;;;;16.50;51.40;;;;;;5078312;28;19936;-57
2024/03/07 13:11:22;;;;;;;;;;;16.50;51.00;;;;;;5073405;28;19932;-53
2024/03/07 13:13:52;;;;;;;;;;;16.40;50.90;;;;;;5079337;28;19934;-59
2024/03/07 13:16:22;;;;;;;;;;;16.40;50.90;;;;;;5079581;28;19973;-56
2024/03/07 13:18:50;;;;;;;;;;;16.30;50.80;;;;;;5082521;28;20006;-56
2024/03/07 13:21:20;;;;;;;;;;;16.40;51.10;;;;;;5079683;27;19986;-54
2024/03/07 13:23:48;;;;;;;;;;;16.70;51.50;;;;;;5086884;28;20134;-56
2024/03/07 13:26:23;;;;;;;;;;;16.90;51.20;;;;;;5061437;28;20552;-56
2024/03/07 13:28:53;;;;;;;;;;;17.00;50.80;;;;;;5079343;28;20031;-56
2024/03/07 13:31:23;;;;;;;;;;;17.00;50.10;;;;;;5073470;28;19932;-61
2024/03/07 13:33:51;;;;;;;;;;;16.90;50.30;;;;;;5076206;28;20027;-56
2024/03/07 13:36:22;;;;;;;;;;;16.80;49.90;;;;;;5083409;28;20036;-60
2024/03/07 13:38:51;;;;;;;;;;;16.70;50.00;;;;;;5082799;28;19961;-59
2024/03/07 13:41:20;;;;;;;;;;;16.60;49.80;;;;;;5077396;28;19928;-59
2024/03/07 13:43:48;;;;;;;;;;;16.50;50.00;;;;;;5074863;28;19932;-60
2024/03/07 13:46:17;;;;;;;;;;;16.40;50.60;;;;;;5074961;28;19928;-60
2024/03/07 13:48:47;;;;;;;;;;;16.40;49.70;;;;;;5077444;28;19931;-60
2024/03/07 13:51:17;;;;;;;;;;;16.20;49.20;;;;;;5084260;27;19928;-52
2024/03/07 13:54:00;;;;;;;;;;;15.90;48.80;;;;;;5081996;27;19929;-57
2024/03/07 13:56:45;;;;;;;;;;;15.70;49.50;;;;;;5077439;28;19927;-58
2024/03/07 13:59:41;;;;;;;;;;;15.70;50.30;;;;;;5086304;27;20023;-54
2024/03/07 14:02:20;;;;;;;;;;;15.70;50.00;;;;;;5048018;28;20025;-58
2024/03/07 14:05:12;;;;;;;;;;;15.60;49.40;;;;;;5084915;28;19932;-55
2024/03/07 14:07:50;;;;;;;;;;;15.40;49.40;;;;;;5072782;28;19967;-57
2024/03/07 14:10:28;;;;;;;;;;;15.40;49.70;;;;;;5081710;28;20044;-58
2024/03/07 14:13:06;;;;;;;;;;;15.40;50.10;;;;;;5066196;28;19943;-58
2024/03/07 14:16:02;;;;;;;;;;;15.40;49.80;;;;;;5072335;28;19924;-57
2024/03/07 14:18:52;;;;;;;;;;;15.20;48.90;;;;;;5046101;28;20734;-56
2024/03/07 14:21:36;;;;;;;;;;;14.90;48.50;;;;;;5077655;27;20398;-57
2024/03/07 14:24:28;;;;;;;;;;;14.70;49.00;;;;;;5094286;28;20031;-55
2024/03/07 14:27:10;;;;;;;;;;;14.50;48.90;;;;;;5085027;28;19945;-58
2024/03/07 14:29:43;;;;;;;;;;;14.40;49.00;;;;;;5079320;28;20968;-56
2024/03/07 14:32:12;;;;;;;;;;;14.30;49.20;;;;;;5082658;28;20722;-56
2024/03/07 14:34:47;;;;;;;;;;;14.30;49.50;;;;;;5084546;28;20435;-59